Time;durP1;ratioP1;P1;durP2;ratioP2;P2;SDS_P1;SDS_P2;PMS_P1;PMS_P2;Temp;Humidity;BMP_temperature;BMP_pressure;BME280_temperature;BME280_humidity;BME280_pressure;Samples;Min_cycle;Max_cycle;Signal;HPM_P1;HPM_P2
2022/09/02 00:00:47;;;;;;;0.52;0.10;;;22.10;49.00;;;;;;5073503;28;20116;-68
2022/09/02 00:03:14;;;;;;;0.30;0.10;;;22.10;49.00;;;;;;5072384;28;20422;-68
2022/09/02 00:05:40;;;;;;;0.20;0.00;;;22.10;49.00;;;;;;5072008;28;20109;-68
2022/09/02 00:08:06;;;;;;;0.32;0.10;;;22.10;48.90;;;;;;5071253;28;20085;-68
2022/09/02 00:10:35;;;;;;;0.82;0.00;;;22.00;48.90;;;;;;5072240;28;20066;-68
2022/09/02 00:13:01;;;;;;;0.63;0.20;;;22.00;48.90;;;;;;5072071;28;20447;-68
2022/09/02 00:15:26;;;;;;;0.95;0.10;;;22.00;48.90;;;;;;5071922;28;20048;-68
2022/09/02 00:17:52;;;;;;;1.05;0.10;;;22.00;48.90;;;;;;5071729;28;20048;-68
2022/09/02 00:20:19;;;;;;;0.30;0.10;;;22.00;48.90;;;;;;5072238;28;20389;-68
2022/09/02 00:22:44;;;;;;;0.60;0.00;;;22.00;48.90;;;;;;5071641;28;20055;-68
2022/09/02 00:25:10;;;;;;;0.32;0.10;;;22.00;48.90;;;;;;5071665;28;20040;-68
2022/09/02 00:27:36;;;;;;;0.13;0.00;;;22.00;48.90;;;;;;5071880;28;20036;-68
2022/09/02 00:30:03;;;;;;;0.15;0.00;;;21.90;48.80;;;;;;5071542;28;20436;-68
2022/09/02 00:32:29;;;;;;;0.20;0.05;;;22.00;48.90;;;;;;5071708;28;20529;-69
2022/09/02 00:34:56;;;;;;;0.40;0.10;;;21.90;48.80;;;;;;5072642;28;20487;-68
2022/09/02 00:37:23;;;;;;;0.25;0.10;;;21.90;48.80;;;;;;5072919;28;20522;-68
2022/09/02 00:39:50;;;;;;;1.27;0.10;;;21.90;48.80;;;;;;5072717;28;20123;-68
2022/09/02 00:42:16;;;;;;;0.25;0.08;;;21.90;48.80;;;;;;5071580;28;20123;-68
2022/09/02 00:44:42;;;;;;;0.20;0.00;;;21.90;48.80;;;;;;5072274;28;20135;-68
2022/09/02 00:47:07;;;;;;;1.17;0.10;;;21.90;48.80;;;;;;5071215;28;20087;-68
2022/09/02 00:49:37;;;;;;;0.30;0.10;;;21.90;48.80;;;;;;5071081;28;20063;-68
2022/09/02 00:54:51;;;;;;;0.93;0.10;;;21.90;48.70;;;;;;5130321;27;20395;-68
2022/09/02 00:57:21;;;;;;;0.28;0.00;;;21.90;48.70;;;;;;5129270;28;20043;-68
2022/09/02 01:02:50;;;;;;;0.20;0.10;;;21.90;48.80;;;;;;5130404;27;20415;-68
2022/09/02 01:05:18;;;;;;;0.37;0.10;;;21.90;48.70;;;;;;5129121;28;20043;-68
2022/09/02 01:07:45;;;;;;;0.65;0.10;;;21.80;48.60;;;;;;5129272;28;20309;-68
2022/09/02 01:10:16;;;;;;;0.80;0.10;;;21.90;48.70;;;;;;5129046;28;20041;-68
2022/09/02 01:12:42;;;;;;;0.77;0.10;;;21.90;48.70;;;;;;5128914;28;20046;-68
2022/09/02 01:15:10;;;;;;;0.60;0.10;;;21.80;48.60;;;;;;5129136;28;20035;-68
2022/09/02 01:17:41;;;;;;;0.40;0.10;;;21.80;48.60;;;;;;5128839;28;20092;-68
2022/09/02 01:20:13;;;;;;;0.80;0.10;;;21.80;48.60;;;;;;5129968;27;20100;-68
2022/09/02 01:22:41;;;;;;;0.20;0.10;;;21.80;48.60;;;;;;5128630;28;20043;-68
2022/09/02 01:25:11;;;;;;;0.28;0.10;;;21.80;48.60;;;;;;5128841;28;20102;-68
2022/09/02 01:27:37;;;;;;;0.20;0.00;;;21.80;48.60;;;;;;5128636;28;20039;-68
2022/09/02 01:30:04;;;;;;;0.60;0.10;;;21.80;48.60;;;;;;5128694;28;20071;-68
2022/09/02 01:32:30;;;;;;;0.50;0.10;;;21.80;48.50;;;;;;5128766;28;20450;-68
2022/09/02 01:34:56;;;;;;;0.47;0.20;;;21.80;48.60;;;;;;5128407;28;20067;-68
2022/09/02 01:37:23;;;;;;;1.23;0.10;;;21.80;48.50;;;;;;5129738;27;20072;-68
2022/09/02 01:39:51;;;;;;;0.15;0.03;;;21.80;48.50;;;;;;5128219;28;20043;-68
2022/09/02 01:42:17;;;;;;;1.35;0.03;;;21.80;48.60;;;;;;5128333;28;20043;-68
2022/09/02 01:44:44;;;;;;;0.85;0.10;;;21.70;48.60;;;;;;5128175;28;20040;-68
2022/09/02 01:47:16;;;;;;;0.68;0.10;;;21.70;48.50;;;;;;5128270;28;20036;-68
2022/09/02 01:49:42;;;;;;;0.20;0.00;;;21.70;48.50;;;;;;5129865;27;20035;-68
2022/09/02 01:52:08;;;;;;;0.30;0.10;;;21.70;48.50;;;;;;5129439;27;20398;-68
2022/09/02 01:54:34;;;;;;;0.43;0.10;;;21.70;48.50;;;;;;5129295;27;20035;-68
2022/09/02 01:57:00;;;;;;;0.60;0.10;;;21.70;48.50;;;;;;5129303;27;20035;-68
2022/09/02 01:59:26;;;;;;;0.10;0.00;;;21.70;48.50;;;;;;5129290;27;20035;-68
2022/09/02 02:01:52;;;;;;;0.90;0.22;;;21.70;48.50;;;;;;5127464;28;20509;-68
2022/09/02 02:04:17;;;;;;;0.20;0.10;;;21.70;48.40;;;;;;5128102;28;20047;-68
2022/09/02 02:06:47;;;;;;;0.30;0.10;;;21.70;48.40;;;;;;5127738;28;20047;-68
2022/09/02 02:09:12;;;;;;;0.30;0.08;;;21.70;48.50;;;;;;5127773;28;20040;-68
2022/09/02 02:11:38;;;;;;;0.20;0.08;;;21.60;48.40;;;;;;5128993;27;20146;-68
2022/09/02 02:14:05;;;;;;;0.15;0.00;;;21.70;48.50;;;;;;5114219;28;20037;-68
2022/09/02 02:16:30;;;;;;;0.10;0.00;;;21.70;48.50;;;;;;5113953;28;20507;-68
2022/09/02 02:18:57;;;;;;;0.13;0.00;;;21.60;48.40;;;;;;5113929;28;20054;-68
2022/09/02 02:21:23;;;;;;;0.20;0.10;;;21.60;48.40;;;;;;5113732;28;20047;-68
2022/09/02 02:23:49;;;;;;;0.38;0.08;;;21.60;48.40;;;;;;5113783;28;20039;-68
2022/09/02 02:26:15;;;;;;;0.20;0.00;;;21.60;48.40;;;;;;5114979;28;20039;-68
2022/09/02 02:28:41;;;;;;;0.43;0.00;;;21.60;48.40;;;;;;5115107;28;20104;-68
2022/09/02 02:31:08;;;;;;;0.32;0.10;;;21.60;48.40;;;;;;5113812;28;20126;-68
2022/09/02 02:33:34;;;;;;;0.20;0.10;;;21.60;48.40;;;;;;5114936;28;20038;-68
2022/09/02 02:36:03;;;;;;;0.50;0.13;;;21.60;48.40;;;;;;5113905;28;20048;-68
2022/09/02 02:38:29;;;;;;;0.30;0.20;;;21.60;48.40;;;;;;5114757;28;20503;-68
2022/09/02 02:40:56;;;;;;;0.20;0.10;;;21.60;48.40;;;;;;5113383;28;20075;-68
2022/09/02 02:43:24;;;;;;;1.45;0.10;;;21.60;48.40;;;;;;5114868;28;20035;-68
2022/09/02 02:45:50;;;;;;;0.20;0.00;;;21.60;48.40;;;;;;5113736;28;20043;-68
2022/09/02 02:48:16;;;;;;;0.32;0.10;;;21.60;48.40;;;;;;5114596;28;20047;-68
2022/09/02 02:50:42;;;;;;;0.85;0.10;;;21.60;48.50;;;;;;5114701;28;20042;-68
2022/09/02 02:53:08;;;;;;;0.13;0.03;;;21.60;48.50;;;;;;5113230;28;20138;-68
2022/09/02 02:55:34;;;;;;;0.43;0.10;;;21.50;48.40;;;;;;5113140;28;20046;-68
2022/09/02 02:58:00;;;;;;;0.40;0.10;;;21.50;48.40;;;;;;5114577;28;20042;-68
2022/09/02 03:00:28;;;;;;;0.17;0.10;;;21.50;48.40;;;;;;5112770;28;20127;-67
2022/09/02 03:02:58;;;;;;;0.30;0.10;;;21.50;48.40;;;;;;5114456;28;20403;-68
2022/09/02 03:05:24;;;;;;;0.20;0.10;;;21.50;48.40;;;;;;5114459;28;20044;-68
2022/09/02 03:07:50;;;;;;;0.20;0.08;;;21.50;48.40;;;;;;5114214;28;20043;-68
2022/09/02 03:10:16;;;;;;;0.35;0.10;;;21.50;48.40;;;;;;5113167;28;20043;-68
2022/09/02 03:12:46;;;;;;;0.10;0.00;;;21.50;48.40;;;;;;5114382;28;20382;-68
2022/09/02 03:15:15;;;;;;;0.60;0.10;;;21.50;48.50;;;;;;5113162;28;20165;-68
2022/09/02 03:17:43;;;;;;;0.25;0.10;;;21.50;48.40;;;;;;5113917;28;20490;-68
2022/09/02 03:20:09;;;;;;;0.57;0.10;;;21.50;48.40;;;;;;5112990;28;20058;-68
2022/09/02 03:22:37;;;;;;;0.50;0.10;;;21.50;48.50;;;;;;5112560;28;20122;-68
2022/09/02 03:25:05;;;;;;;0.98;0.10;;;21.50;48.50;;;;;;5112727;28;20035;-68
2022/09/02 03:27:33;;;;;;;0.20;0.00;;;21.40;48.40;;;;;;5114027;28;20471;-68
2022/09/02 03:29:59;;;;;;;0.50;0.00;;;21.50;48.50;;;;;;5111150;28;20537;-68
2022/09/02 03:32:25;;;;;;;0.28;0.10;;;21.50;48.50;;;;;;5092048;28;20097;-68
2022/09/02 03:34:50;;;;;;;1.15;0.10;;;21.40;48.50;;;;;;5092479;28;20044;-68
2022/09/02 03:37:16;;;;;;;0.35;0.10;;;21.40;49.30;;;;;;5093353;28;20040;-68
2022/09/02 03:39:42;;;;;;;1.05;0.08;;;21.40;48.50;;;;;;5093101;28;20032;-68
2022/09/02 03:42:08;;;;;;;0.35;0.00;;;21.40;48.50;;;;;;5091906;28;20389;-68
2022/09/02 03:44:33;;;;;;;0.43;0.10;;;21.40;48.50;;;;;;5092283;28;20047;-68
2022/09/02 03:47:00;;;;;;;0.40;0.10;;;21.40;48.90;;;;;;5092007;28;20472;-68
2022/09/02 03:49:27;;;;;;;0.30;0.00;;;21.40;48.50;;;;;;5091987;28;20040;-68
2022/09/02 03:51:53;;;;;;;0.10;0.00;;;21.40;48.50;;;;;;5093052;28;20047;-68
2022/09/02 03:54:18;;;;;;;0.52;0.10;;;21.40;48.50;;;;;;5093096;28;20047;-68
2022/09/02 03:56:44;;;;;;;0.10;0.00;;;21.40;48.50;;;;;;5091919;28;20032;-68
2022/09/02 03:59:10;;;;;;;0.20;0.00;;;21.40;48.50;;;;;;5091831;28;20043;-68
2022/09/02 04:01:36;;;;;;;0.55;0.10;;;21.40;48.50;;;;;;5091325;28;20544;-68
2022/09/02 04:04:04;;;;;;;0.28;0.10;;;21.40;48.50;;;;;;5091511;28;20040;-68
2022/09/02 04:06:29;;;;;;;0.10;0.08;;;21.40;48.50;;;;;;5091709;28;20395;-68
2022/09/02 04:08:55;;;;;;;0.40;0.10;;;21.40;48.50;;;;;;5091334;28;20119;-68
2022/09/02 04:11:22;;;;;;;0.20;0.10;;;21.30;48.50;;;;;;5091694;28;20051;-68
2022/09/02 04:13:50;;;;;;;0.17;0.10;;;21.30;48.50;;;;;;5091659;28;20040;-68
2022/09/02 04:16:19;;;;;;;0.20;0.10;;;21.30;48.50;;;;;;5091281;28;20479;-68
2022/09/02 04:18:45;;;;;;;0.30;0.10;;;21.30;48.50;;;;;;5091618;28;20047;-68
2022/09/02 04:21:12;;;;;;;0.17;0.00;;;21.30;48.50;;;;;;5092480;28;20040;-68
2022/09/02 04:23:38;;;;;;;0.30;0.10;;;21.30;48.50;;;;;;5092473;28;20047;-68
2022/09/02 04:26:08;;;;;;;0.30;0.22;;;21.30;48.50;;;;;;5092594;28;20394;-68
2022/09/02 04:28:34;;;;;;;0.20;0.10;;;21.30;48.50;;;;;;5091468;28;20044;-68
2022/09/02 04:31:04;;;;;;;0.60;0.00;;;21.30;49.30;;;;;;5103467;28;20046;-69
2022/09/02 04:33:30;;;;;;;0.45;0.10;;;21.30;48.50;;;;;;5111416;28;20051;-68
2022/09/02 04:35:56;;;;;;;0.20;0.10;;;21.30;48.50;;;;;;5111323;28;20039;-68
2022/09/02 04:38:21;;;;;;;0.30;0.10;;;21.30;48.50;;;;;;5111546;28;20144;-68
2022/09/02 04:40:47;;;;;;;1.08;0.03;;;21.30;48.50;;;;;;5111112;28;20048;-68
2022/09/02 04:43:13;;;;;;;0.40;0.10;;;21.20;48.50;;;;;;5111341;28;20081;-69
2022/09/02 04:45:40;;;;;;;0.50;0.10;;;21.30;48.60;;;;;;5111505;28;20318;-68
2022/09/02 04:48:06;;;;;;;0.17;0.00;;;21.20;48.50;;;;;;5094656;28;20048;-67
2022/09/02 04:50:32;;;;;;;0.25;0.10;;;21.20;48.50;;;;;;5112557;28;20038;-68
2022/09/02 04:52:58;;;;;;;0.57;0.10;;;21.20;48.50;;;;;;5112449;28;20106;-68
2022/09/02 04:55:24;;;;;;;0.95;0.10;;;21.20;48.60;;;;;;5111343;28;20092;-68
2022/09/02 04:57:50;;;;;;;1.10;0.10;;;21.20;48.50;;;;;;5111015;28;20122;-68
2022/09/02 05:00:17;;;;;;;0.38;0.10;;;21.20;48.60;;;;;;5111306;28;20043;-68
2022/09/02 05:02:43;;;;;;;0.30;0.10;;;21.20;48.50;;;;;;5110677;28;20071;-68
2022/09/02 05:05:09;;;;;;;0.10;0.10;;;21.20;48.60;;;;;;5110998;28;20071;-67
2022/09/02 05:07:36;;;;;;;0.50;0.10;;;21.20;48.60;;;;;;5111000;28;20040;-68
2022/09/02 05:10:04;;;;;;;0.10;0.00;;;21.20;48.60;;;;;;5112171;28;20040;-68
2022/09/02 05:12:31;;;;;;;0.30;0.10;;;21.20;48.60;;;;;;5111170;28;20185;-68
2022/09/02 05:14:59;;;;;;;1.05;0.10;;;21.20;48.60;;;;;;5112244;28;20119;-69
2022/09/02 05:17:30;;;;;;;0.10;0.00;;;21.20;48.60;;;;;;5112273;28;20039;-68
2022/09/02 05:19:56;;;;;;;0.17;0.10;;;21.20;48.60;;;;;;5112227;28;20119;-68
2022/09/02 05:22:22;;;;;;;0.55;0.10;;;21.10;48.60;;;;;;5110760;28;20027;-68
2022/09/02 05:24:48;;;;;;;0.95;0.10;;;21.10;48.60;;;;;;5112152;28;20450;-68
2022/09/02 05:27:15;;;;;;;0.22;0.10;;;21.20;48.60;;;;;;5100421;28;20040;-68
2022/09/02 05:29:41;;;;;;;0.47;0.10;;;21.10;48.70;;;;;;5090356;28;20036;-66
2022/09/02 05:32:07;;;;;;;0.57;0.10;;;21.20;48.50;;;;;;5109429;28;20369;-64
2022/09/02 05:34:34;;;;;;;2.95;0.10;;;21.10;48.40;;;;;;5111593;28;20069;-65
2022/09/02 05:37:01;;;;;;;2.05;0.40;;;21.20;48.20;;;;;;5109336;28;20047;-66
2022/09/02 05:39:27;;;;;;;0.70;0.10;;;21.20;48.20;;;;;;5110653;28;20075;-65
2022/09/02 05:41:52;;;;;;;1.10;0.30;;;21.30;48.10;;;;;;5109516;28;20071;-65
2022/09/02 05:44:18;;;;;;;4.43;0.10;;;21.40;47.90;;;;;;5109254;28;20114;-65
2022/09/02 05:46:44;;;;;;;7.97;0.20;;;21.40;47.90;;;;;;5109800;28;20391;-67
2022/09/02 05:49:16;;;;;;;4.70;0.35;;;21.40;47.80;;;;;;5117090;27;20080;-64
2022/09/02 05:57:09;;;;;;;1.90;0.10;;;21.50;47.80;;;;;;5128682;27;20748;-63
2022/09/02 05:59:40;;;;;;;0.45;0.10;;;21.50;47.60;;;;;;5117762;28;20044;-63
2022/09/02 06:02:08;;;;;;;2.28;0.10;;;21.60;47.70;;;;;;5105751;28;20252;-63
2022/09/02 06:04:41;;;;;;;1.55;0.10;;;21.60;47.60;;;;;;5104042;28;20043;-63
2022/09/02 06:07:07;;;;;;;1.17;0.10;;;21.60;47.50;;;;;;5103739;28;20079;-63
2022/09/02 06:09:33;;;;;;;1.60;0.20;;;21.60;47.40;;;;;;5102614;28;20070;-63
2022/09/02 06:11:59;;;;;;;1.42;0.10;;;21.60;47.50;;;;;;5107569;28;20083;-63
2022/09/02 06:14:25;;;;;;;0.90;0.10;;;21.60;47.40;;;;;;5098571;28;20698;-63
2022/09/02 06:16:53;;;;;;;0.22;0.10;;;21.60;47.40;;;;;;5103765;28;20487;-63
2022/09/02 06:19:20;;;;;;;1.15;0.43;;;21.60;47.40;;;;;;5104028;28;20443;-63
2022/09/02 06:21:46;;;;;;;0.90;0.10;;;21.60;47.40;;;;;;5097401;28;20061;-62
2022/09/02 06:24:12;;;;;;;0.40;0.10;;;21.70;47.50;;;;;;5088132;28;20040;-62
2022/09/02 06:26:40;;;;;;;1.55;0.20;;;21.70;47.50;;;;;;5087777;28;20052;-63
2022/09/02 06:29:06;;;;;;;0.50;0.08;;;21.70;47.50;;;;;;5090277;28;20139;-63
2022/09/02 06:31:32;;;;;;;0.65;0.10;;;21.70;47.60;;;;;;5094734;28;20036;-63
2022/09/02 06:33:59;;;;;;;0.65;0.10;;;21.70;47.60;;;;;;5060721;28;20157;-64
2022/09/02 06:36:28;;;;;;;0.30;0.10;;;21.60;47.60;;;;;;5083879;28;20062;-63
2022/09/02 06:38:56;;;;;;;0.40;0.10;;;21.70;47.60;;;;;;5086282;28;20114;-64
2022/09/02 06:41:27;;;;;;;1.10;0.10;;;21.70;47.60;;;;;;5085535;28;20174;-65
2022/09/02 06:43:54;;;;;;;;;;;21.70;47.70;;;;;;5090789;28;20044;-64
2022/09/02 06:46:25;;;;;;;3.60;0.20;;;21.60;47.90;;;;;;5104359;28;20700;-66
2022/09/02 06:48:50;;;;;;;;;;;21.70;47.90;;;;;;5097152;28;20117;-65
2022/09/02 06:51:19;;;;;;;2.50;0.10;;;21.60;48.10;;;;;;5089331;28;19974;-64
2022/09/02 06:53:45;;;;;;;4.07;0.13;;;21.70;47.90;;;;;;5089532;28;20174;-67
2022/09/02 06:56:10;;;;;;;1.83;0.57;;;21.70;48.00;;;;;;5087760;28;20135;-65
2022/09/02 06:58:36;;;;;;;1.45;0.10;;;21.70;48.10;;;;;;5086968;28;20926;-65
2022/09/02 07:01:06;;;;;;;0.55;0.08;;;21.70;48.10;;;;;;5090363;28;20476;-67
2022/09/02 07:06:18;;;;;;;1.38;0.28;;;21.80;48.30;;;;;;5087733;28;20081;-69
2022/09/02 07:08:44;;;;;;;1.48;0.17;;;21.80;48.40;;;;;;5061458;28;20045;-72
2022/09/02 07:11:20;;;;;;;1.85;0.20;;;21.80;48.60;;;;;;5073186;28;20634;-66
2022/09/02 07:13:46;;;;;;;2.38;0.20;;;21.60;48.80;;;;;;5073516;28;20541;-67
2022/09/02 07:16:12;;;;;;;0.50;0.13;;;21.60;48.80;;;;;;5078619;28;20047;-67
2022/09/02 07:18:38;;;;;;;2.00;0.20;;;21.60;48.90;;;;;;5072206;28;20550;-67
2022/09/02 07:21:03;;;;;;;2.88;0.10;;;21.70;49.00;;;;;;5072039;28;20091;-70
2022/09/02 07:23:29;;;;;;;0.68;0.10;;;21.70;49.00;;;;;;5075138;28;20040;-67
2022/09/02 07:25:55;;;;;;;1.77;0.20;;;21.70;48.80;;;;;;5073210;28;20039;-67
2022/09/02 07:28:22;;;;;;;0.80;0.10;;;21.70;48.60;;;;;;5076894;28;20068;-68
2022/09/02 07:30:47;;;;;;;0.98;0.17;;;21.80;48.60;;;;;;5074127;28;20072;-67
2022/09/02 07:33:14;;;;;;;1.30;0.10;;;21.80;48.80;;;;;;5075493;28;20091;-68
2022/09/02 07:35:42;;;;;;;1.40;0.20;;;21.70;48.90;;;;;;5071938;28;20077;-69
2022/09/02 07:38:09;;;;;;;2.25;0.30;;;21.70;49.10;;;;;;5074389;28;20567;-65
2022/09/02 07:40:35;;;;;;;2.28;0.10;;;21.70;49.20;;;;;;5074687;28;20073;-67
2022/09/02 07:43:02;;;;;;;1.67;0.20;;;21.60;49.20;;;;;;5086481;28;20068;-71
2022/09/02 07:45:29;;;;;;;1.48;0.20;;;21.70;49.30;;;;;;5064796;28;20897;-71
2022/09/02 07:47:55;;;;;;;7.47;0.20;;;21.70;49.40;;;;;;5065393;28;20052;-71
2022/09/02 07:50:21;;;;;;;7.22;0.40;;;21.70;49.50;;;;;;5058832;28;20051;-69
2022/09/02 07:52:47;;;;;;;5.00;0.20;;;21.70;49.50;;;;;;5086334;28;20052;-67
2022/09/02 07:55:13;;;;;;;5.55;0.82;;;21.70;49.70;;;;;;5068096;28;20135;-64
2022/09/02 07:57:39;;;;;;;2.05;0.17;;;21.70;49.70;;;;;;5068281;28;20040;-64
2022/09/02 08:00:05;;;;;;;0.90;0.20;;;21.70;49.80;;;;;;5075328;28;20064;-65
2022/09/02 08:02:31;;;;;;;0.55;0.20;;;21.70;49.90;;;;;;5075186;28;20037;-65
2022/09/02 08:04:57;;;;;;;2.38;0.10;;;21.80;50.00;;;;;;5067020;28;20125;-65
2022/09/02 08:07:23;;;;;;;4.35;0.30;;;21.80;49.90;;;;;;5070236;28;20335;-68
2022/09/02 08:09:50;;;;;;;4.35;0.20;;;21.80;50.00;;;;;;5067971;28;20036;-67
2022/09/02 08:12:16;;;;;;;2.17;0.10;;;21.90;50.00;;;;;;5061202;28;20179;-66
2022/09/02 08:14:42;;;;;;;3.28;0.40;;;21.90;49.90;;;;;;5066379;28;20036;-66
2022/09/02 08:17:08;;;;;;;4.10;0.20;;;21.90;49.90;;;;;;5068244;28;20035;-68
2022/09/02 08:19:33;;;;;;;1.58;0.10;;;21.90;50.00;;;;;;5074072;28;20066;-68
2022/09/02 08:22:05;;;;;;;8.77;0.40;;;22.00;50.00;;;;;;5069425;28;20615;-68
2022/09/02 08:24:31;;;;;;;0.63;0.20;;;22.00;50.20;;;;;;5072601;28;20046;-73
2022/09/02 08:26:59;;;;;;;1.98;0.15;;;21.90;50.10;;;;;;5070461;28;20115;-72
2022/09/02 08:29:24;;;;;;;2.90;0.20;;;21.90;50.30;;;;;;5070516;28;20035;-70
2022/09/02 08:31:50;;;;;;;1.10;0.10;;;22.00;50.30;;;;;;5075239;28;20028;-68
2022/09/02 08:34:16;;;;;;;3.20;0.20;;;22.00;50.40;;;;;;5072030;28;20736;-66
2022/09/02 08:36:42;;;;;;;0.85;0.20;;;22.00;50.30;;;;;;5067685;28;20051;-66
2022/09/02 08:39:09;;;;;;;2.60;0.20;;;22.00;50.20;;;;;;5073394;28;20044;-67
2022/09/02 08:41:49;;;;;;;0.93;0.10;;;22.00;50.10;;;;;;5076292;28;20079;-67
2022/09/02 08:44:21;;;;;;;2.72;0.55;;;22.00;50.00;;;;;;5069063;28;20032;-67
2022/09/02 08:46:52;;;;;;;0.50;0.17;;;22.00;49.90;;;;;;5073590;28;20072;-67
2022/09/02 08:49:27;;;;;;;1.90;0.30;;;22.00;50.60;;;;;;5071924;28;20048;-66
2022/09/02 08:51:57;;;;;;;2.13;0.13;;;22.00;49.90;;;;;;5074457;28;20395;-66
2022/09/02 08:54:35;;;;;;;1.35;0.20;;;22.00;49.90;;;;;;5077579;28;20492;-65
2022/09/02 08:57:01;;;;;;;4.20;0.30;;;21.90;50.00;;;;;;5064049;28;20152;-69
2022/09/02 08:59:29;;;;;;;2.70;0.20;;;21.90;50.10;;;;;;5081117;28;20037;-66
2022/09/02 09:05:18;;;;;;;1.67;0.25;;;22.00;50.30;;;;;;5071841;27;20441;-66
2022/09/02 09:10:41;;;;;;;3.80;0.30;;;22.00;50.40;;;;;;5106512;27;20471;-69
2022/09/02 09:16:11;;;;;;;1.52;0.50;;;22.10;50.60;;;;;;5048635;27;20530;-66
2022/09/02 09:18:40;;;;;;;2.00;0.20;;;22.10;50.60;;;;;;5065281;28;20048;-72
2022/09/02 09:21:07;;;;;;;0.93;0.17;;;22.10;50.60;;;;;;5066592;28;20061;-73
2022/09/02 09:23:37;;;;;;;3.88;0.20;;;22.10;50.70;;;;;;5064445;28;20049;-69
2022/09/02 09:26:06;;;;;;;;;;;22.10;50.90;;;;;;5064685;28;20049;-73
2022/09/02 09:28:39;;;;;;;1.77;0.25;;;22.20;50.70;;;;;;5049432;28;19920;-69
2022/09/02 09:31:09;;;;;;;1.77;0.30;;;22.20;50.70;;;;;;5052133;28;20540;-71
2022/09/02 09:33:34;;;;;;;1.80;0.20;;;22.20;50.70;;;;;;5049254;28;20574;-75
2022/09/02 09:36:02;;;;;;;2.38;0.20;;;22.20;50.60;;;;;;5041429;28;20045;-71
2022/09/02 09:38:33;;;;;;;1.27;0.20;;;22.20;50.60;;;;;;5045436;28;20097;-68
2022/09/02 09:41:19;;;;;;;1.85;1.10;;;22.30;50.50;;;;;;5047364;28;20041;-69
2022/09/02 09:43:45;;;;;;;4.50;0.20;;;22.30;50.50;;;;;;5044970;28;20051;-71
2022/09/02 09:46:31;;;;;;;2.90;0.20;;;22.30;50.40;;;;;;5046856;28;20409;-68
2022/09/02 09:48:56;;;;;;;1.70;0.50;;;22.30;50.30;;;;;;5052231;28;20686;-65
2022/09/02 09:51:22;;;;;;;5.85;0.20;;;22.30;50.30;;;;;;5048671;28;20120;-68
2022/09/02 09:53:48;;;;;;;1.65;0.10;;;22.40;50.80;;;;;;5051827;28;20036;-67
2022/09/02 09:58:54;;;;;;;4.25;0.10;;;22.40;50.80;;;;;;5052828;27;20502;-66
2022/09/02 10:01:29;;;;;;;1.65;0.20;;;22.50;50.60;;;;;;5046874;28;20575;-71
2022/09/02 10:06:41;;;;;;;2.90;0.20;;;22.50;50.90;;;;;;5108272;27;20400;-67
2022/09/02 10:11:59;;;;;;;1.92;0.45;;;22.60;50.90;;;;;;5108748;27;20128;-65
2022/09/02 10:14:38;;;;;;;3.20;0.20;;;22.60;50.70;;;;;;5093381;28;20497;-65
2022/09/02 10:17:43;;;;;;;2.72;0.10;;;22.60;50.70;;;;;;5110497;27;20656;-65
2022/09/02 10:34:33;;;;;;;2.85;0.20;;;22.60;49.80;;;;;;5060828;27;20734;-66
2022/09/02 10:40:07;;;;;;;2.08;0.10;;;22.60;49.50;;;;;;5065163;27;20449;-66
2022/09/02 10:42:45;;;;;;;3.13;0.20;;;22.60;49.40;;;;;;5054595;28;20056;-67
2022/09/02 10:50:48;;;;;;;4.75;0.30;;;22.60;49.40;;;;;;5104509;27;20453;-68
2022/09/02 10:53:26;;;;;;;3.83;0.20;;;22.60;49.20;;;;;;5107731;28;20063;-69
2022/09/02 10:56:04;;;;;;;7.00;0.40;;;22.60;49.30;;;;;;5100633;28;20209;-70
2022/09/02 10:59:06;;;;;;;0.70;0.20;;;22.70;49.20;;;;;;5102721;28;20058;-68
2022/09/02 11:01:58;;;;;;;1.33;0.20;;;22.70;48.70;;;;;;5107034;27;20089;-68
2022/09/02 11:07:09;;;;;;;0.70;0.20;;;22.70;48.40;;;;;;5069042;27;20385;-74
2022/09/02 11:09:44;;;;;;;2.40;0.10;;;22.70;48.40;;;;;;5061744;28;20561;-69
2022/09/02 11:17:46;;;;;;;2.72;0.20;;;22.70;48.40;;;;;;5079100;27;21165;-66
2022/09/02 11:20:27;;;;;;;2.42;0.20;;;22.70;48.60;;;;;;5075493;28;20689;-70
2022/09/02 11:23:19;;;;;;;4.45;0.10;;;22.70;48.80;;;;;;5054824;28;20044;-67
2022/09/02 11:25:54;;;;;;;1.20;0.20;;;22.80;49.20;;;;;;5058835;28;20036;-67
2022/09/02 11:31:09;;;;;;;0.57;0.20;;;22.80;48.50;;;;;;5111609;27;20391;-66
2022/09/02 11:36:16;;;;;;;2.17;0.20;;;22.80;48.20;;;;;;5071920;27;20377;-65
2022/09/02 11:38:52;;;;;;;2.47;0.10;;;22.80;48.10;;;;;;5065196;28;20044;-66
2022/09/02 11:47:25;;;;;;;1.52;0.20;;;22.80;47.90;;;;;;5079142;27;20883;-66
2022/09/02 11:50:31;;;;;;;2.28;0.20;;;22.80;47.90;;;;;;5044483;28;20056;-67
2022/09/02 11:55:46;;;;;;;2.53;0.22;;;22.80;47.60;;;;;;5070900;27;20373;-67
2022/09/02 11:58:29;;;;;;;17.83;1.33;;;22.80;47.60;;;;;;5055510;28;20351;-66
2022/09/02 12:03:35;;;;;;;0.63;0.20;;;22.80;48.40;;;;;;5055285;28;20848;-67
2022/09/02 12:06:07;;;;;;;1.80;0.28;;;22.80;47.60;;;;;;5058055;28;20072;-67
2022/09/02 12:11:37;;;;;;;0.82;0.20;;;22.80;47.40;;;;;;5096048;27;20463;-66
2022/09/02 12:14:03;;;;;;;;;;;22.90;47.30;;;;;;5091241;28;20205;-67
2022/09/02 12:24:56;;;;;;;0.52;0.13;;;22.90;46.60;;;;;;5085638;28;20391;-65
2022/09/02 12:30:08;;;;;;;2.10;0.40;;;22.90;47.00;;;;;;5108983;27;20397;-67
2022/09/02 12:35:34;;;;;;;3.83;0.20;;;22.90;47.00;;;;;;5050252;28;20576;-67
2022/09/02 12:52:10;;;;;;;7.82;0.50;;;22.90;47.80;;;;;;5061224;28;20416;-66
2022/09/02 12:57:18;;;;;;;2.20;0.20;;;23.10;48.40;;;;;;5100349;27;20420;-67
2022/09/02 12:59:46;;;;;;;3.55;0.35;;;23.20;48.20;;;;;;5097590;27;20086;-69
2022/09/02 13:05:16;;;;;;;6.07;0.40;;;23.20;48.30;;;;;;5123882;27;1249527;-67
2022/09/02 13:13:36;;;;;;;3.75;0.30;;;23.40;48.20;;;;;;5107180;27;20406;-68
2022/09/02 13:30:33;;;;;;;1.80;0.20;;;23.50;46.80;;;;;;5104096;27;20416;-69
2022/09/02 13:33:06;;;;;;;1.13;0.20;;;23.50;46.00;;;;;;5103016;28;20043;-69
2022/09/02 13:35:35;;;;;;;0.50;0.20;;;23.60;46.00;;;;;;5105207;28;20123;-69
2022/09/02 13:38:01;;;;;;;0.43;0.20;;;23.60;46.10;;;;;;5102454;28;20039;-69
2022/09/02 13:45:58;;;;;;;1.42;0.38;;;23.60;46.00;;;;;;5126855;27;20579;-68
2022/09/02 13:48:32;;;;;;;2.75;0.20;;;23.70;45.50;;;;;;5124149;28;20035;-72
2022/09/02 13:51:12;;;;;;;1.75;0.30;;;23.70;45.60;;;;;;5123774;28;20035;-67
2022/09/02 13:53:41;;;;;;;1.80;0.20;;;23.60;45.60;;;;;;5124422;27;20066;-66
2022/09/02 13:56:10;;;;;;;0.85;0.10;;;23.70;45.70;;;;;;5124200;28;20031;-66
2022/09/02 13:58:50;;;;;;;2.05;0.75;;;23.70;45.60;;;;;;5123498;28;20074;-68
2022/09/02 14:01:28;;;;;;;1.40;0.20;;;23.70;45.20;;;;;;5123648;28;20038;-68
2022/09/02 14:03:57;;;;;;;2.63;0.20;;;23.70;45.20;;;;;;5129831;27;20042;-69
2022/09/02 14:06:27;;;;;;;1.93;0.30;;;23.70;44.80;;;;;;5123016;28;20046;-69
2022/09/02 14:08:58;;;;;;;1.63;0.20;;;23.70;44.10;;;;;;5123775;28;20054;-67
2022/09/02 14:11:25;;;;;;;1.77;0.47;;;23.70;43.50;;;;;;5122668;28;20479;-67
2022/09/02 14:13:52;;;;;;;1.02;0.22;;;23.70;42.90;;;;;;5125042;28;20044;-69
2022/09/02 14:16:35;;;;;;;1.13;0.30;;;23.70;42.30;;;;;;5125879;27;20066;-70
2022/09/02 14:19:22;;;;;;;3.60;0.30;;;23.60;41.50;;;;;;5123207;28;20541;-70
2022/09/02 14:24:39;;;;;;;0.77;0.20;;;23.60;42.00;;;;;;5137278;27;20110;-71
2022/09/02 14:27:17;;;;;;;3.65;0.40;;;23.50;42.20;;;;;;5107856;28;20078;-72
2022/09/02 14:29:46;;;;;;;1.67;0.20;;;23.50;42.20;;;;;;5107074;28;20088;-72
2022/09/02 14:32:14;;;;;;;0.73;0.30;;;23.50;42.40;;;;;;5109422;28;20407;-73
2022/09/02 14:34:42;;;;;;;3.22;0.40;;;23.50;42.60;;;;;;5107476;28;20709;-77
2022/09/02 14:37:27;;;;;;;3.40;0.40;;;23.40;42.40;;;;;;5109014;28;20573;-80
2022/09/02 14:40:07;;;;;;;1.20;0.30;;;23.40;43.00;;;;;;5107400;28;20096;-85
2022/09/02 14:42:41;;;;;;;0.88;0.30;;;23.40;42.80;;;;;;5104393;28;20067;-78
2022/09/02 14:45:09;;;;;;;0.88;0.28;;;23.40;42.70;;;;;;5106451;28;20047;-75
2022/09/02 14:47:38;;;;;;;0.70;0.20;;;23.40;42.30;;;;;;5126631;28;20027;-73
2022/09/02 14:50:14;;;;;;;0.50;0.22;;;23.50;42.60;;;;;;5108461;28;20103;-78
2022/09/02 14:52:47;;;;;;;1.63;0.40;;;23.50;42.10;;;;;;5105155;28;20035;-78
2022/09/02 14:55:39;;;;;;;2.75;0.40;;;23.50;41.90;;;;;;5104261;28;20081;-76
2022/09/02 14:58:05;;;;;;;0.55;0.20;;;23.50;42.00;;;;;;5106807;28;20039;-74
2022/09/02 15:00:31;;;;;;;6.15;0.55;;;23.50;42.50;;;;;;5107865;28;20047;-73
2022/09/02 15:02:59;;;;;;;2.15;0.40;;;23.40;42.50;;;;;;5105304;28;20051;-77
2022/09/02 15:05:25;;;;;;;1.25;0.20;;;23.40;42.80;;;;;;5126221;28;20043;-74
2022/09/02 15:07:51;;;;;;;2.58;0.50;;;23.50;43.40;;;;;;5106895;28;20035;-72
2022/09/02 15:10:17;;;;;;;2.45;0.50;;;23.50;43.50;;;;;;5107980;28;20069;-74
2022/09/02 15:15:26;;;;;;;1.50;0.30;;;23.60;43.70;;;;;;5145478;27;1186532;-73
2022/09/02 15:17:53;;;;;;;1.50;0.30;;;23.60;43.70;;;;;;5149520;27;20050;-75
2022/09/02 15:20:20;;;;;;;3.67;0.20;;;23.70;43.90;;;;;;5148262;27;20389;-71
2022/09/02 15:22:46;;;;;;;1.75;0.30;;;23.70;43.90;;;;;;5146941;27;20049;-71